Time;durP1;ratioP1;P1;durP2;ratioP2;P2;SDS_P1;SDS_P2;PMS_P1;PMS_P2;Temp;Humidity;BMP_temperature;BMP_pressure;BME280_temperature;BME280_humidity;BME280_pressure;Samples;Min_cycle;Max_cycle;Signal;HPM_P1;HPM_P2
2022/01/29 00:01:40;;;;;;;;;37.40;34.00;;;;;;;;5238514;28;8773;-71
2022/01/29 00:04:12;;;;;;;;;43.40;36.20;;;;;;;;5238207;28;8781;-69
2022/01/29 00:06:43;;;;;;;;;31.40;31.20;;;;;;;;5254945;28;8780;-69
2022/01/29 00:09:16;;;;;;;;;44.20;41.20;;;;;;;;5254960;28;8816;-70
2022/01/29 00:11:47;;;;;;;;;57.00;48.40;;;;;;;;5255213;28;8803;-70
2022/01/29 00:14:19;;;;;;;;;37.20;37.20;;;;;;;;5239227;28;8788;-70
2022/01/29 00:17:11;;;;;;;;;49.80;44.60;;;;;;;;5257879;28;9506;-71
2022/01/29 00:19:43;;;;;;;;;43.00;40.40;;;;;;;;5254619;28;8784;-71
2022/01/29 00:22:15;;;;;;;;;48.40;45.40;;;;;;;;5255058;28;9530;-71
2022/01/29 00:24:46;;;;;;;;;36.00;34.80;;;;;;;;5271501;28;8787;-71
2022/01/29 00:27:20;;;;;;;;;51.20;47.20;;;;;;;;5237974;28;8800;-71
2022/01/29 00:29:52;;;;;;;;;46.60;39.40;;;;;;;;5238108;28;8768;-71
2022/01/29 00:32:23;;;;;;;;;49.20;44.00;;;;;;;;5237685;28;8853;-70
2022/01/29 00:34:55;;;;;;;;;36.20;35.20;;;;;;;;5271131;28;8768;-70
2022/01/29 00:37:26;;;;;;;;;33.00;32.60;;;;;;;;5254528;28;8776;-71
2022/01/29 00:39:58;;;;;;;;;16.80;16.80;;;;;;;;5254776;28;8808;-70
2022/01/29 00:42:29;;;;;;;;;44.40;43.00;;;;;;;;5254754;28;8789;-71
2022/01/29 00:45:01;;;;;;;;;38.60;30.60;;;;;;;;5254188;28;8784;-71
2022/01/29 00:47:34;;;;;;;;;45.00;42.20;;;;;;;;5253735;28;8794;-71
2022/01/29 00:50:05;;;;;;;;;47.00;44.60;;;;;;;;5271412;28;8774;-72
2022/01/29 00:52:38;;;;;;;;;51.00;45.60;;;;;;;;5271022;28;8782;-71
2022/01/29 00:55:11;;;;;;;;;52.60;47.80;;;;;;;;5287782;28;8777;-71
2022/01/29 00:57:43;;;;;;;;;46.00;45.00;;;;;;;;5254065;28;8778;-72
2022/01/29 01:00:15;;;;;;;;;36.20;33.80;;;;;;;;5253520;28;8793;-70
2022/01/29 01:02:46;;;;;;;;;27.60;27.60;;;;;;;;5253736;28;8853;-70
2022/01/29 01:05:18;;;;;;;;;24.00;23.20;;;;;;;;5253653;28;8823;-71
2022/01/29 01:07:50;;;;;;;;;21.00;21.00;;;;;;;;5254473;28;8796;-71
2022/01/29 01:10:23;;;;;;;;;30.20;29.60;;;;;;;;5237115;28;8782;-71
2022/01/29 01:12:54;;;;;;;;;35.20;34.40;;;;;;;;5253872;28;8797;-71
2022/01/29 01:15:26;;;;;;;;;32.80;32.80;;;;;;;;5270747;28;8785;-71
2022/01/29 01:17:58;;;;;;;;;47.40;44.20;;;;;;;;5269960;28;8857;-71
2022/01/29 01:20:30;;;;;;;;;41.00;39.20;;;;;;;;5254152;28;8892;-71
2022/01/29 01:23:02;;;;;;;;;37.40;32.60;;;;;;;;5287098;28;8785;-72
2022/01/29 01:25:33;;;;;;;;;49.00;44.20;;;;;;;;5270925;28;9484;-71
2022/01/29 01:28:05;;;;;;;;;48.75;46.00;;;;;;;;5270568;28;8832;-71
2022/01/29 01:30:37;;;;;;;;;41.40;41.40;;;;;;;;5253821;28;8860;-71
2022/01/29 01:33:08;;;;;;;;;39.20;38.20;;;;;;;;5287580;28;8797;-72
2022/01/29 01:36:03;;;;;;;;;33.00;28.20;;;;;;;;5286947;28;8829;-72
2022/01/29 01:39:00;;;;;;;;;27.60;26.80;;;;;;;;5272890;28;8800;-73
2022/01/29 01:41:38;;;;;;;;;50.80;45.80;;;;;;;;5270631;28;8782;-72
2022/01/29 01:44:13;;;;;;;;;28.60;26.20;;;;;;;;5253452;28;8778;-72
2022/01/29 01:46:44;;;;;;;;;39.00;39.00;;;;;;;;5286993;28;8917;-73
2022/01/29 01:49:16;;;;;;;;;31.20;31.20;;;;;;;;5270556;28;8817;-73
2022/01/29 01:51:48;;;;;;;;;31.00;30.00;;;;;;;;5270083;28;8786;-70
2022/01/29 01:54:39;;;;;;;;;25.00;25.00;;;;;;;;5270179;28;8821;-71
2022/01/29 01:57:11;;;;;;;;;26.20;24.80;;;;;;;;5270163;28;8764;-71
2022/01/29 01:59:43;;;;;;;;;27.00;25.60;;;;;;;;5273582;28;8770;-71
2022/01/29 02:02:34;;;;;;;;;37.80;37.60;;;;;;;;5292907;28;8779;-70
2022/01/29 02:05:06;;;;;;;;;35.20;33.00;;;;;;;;5257683;28;8776;-71
2022/01/29 02:07:37;;;;;;;;;36.60;34.80;;;;;;;;5241101;28;9562;-71
2022/01/29 02:10:11;;;;;;;;;39.80;37.80;;;;;;;;5274616;28;8786;-71
2022/01/29 02:12:54;;;;;;;;;38.00;30.80;;;;;;;;5256901;28;8778;-72
2022/01/29 02:15:26;;;;;;;;;56.60;44.60;;;;;;;;5257108;28;8847;-72
2022/01/29 02:17:58;;;;;;;;;35.40;32.20;;;;;;;;5273929;28;8765;-72
2022/01/29 02:20:32;;;;;;;;;33.00;31.60;;;;;;;;5291341;28;8786;-74
2022/01/29 02:23:03;;;;;;;;;30.00;28.80;;;;;;;;5273987;28;8769;-72
2022/01/29 02:25:34;;;;;;;;;28.20;26.40;;;;;;;;5274947;28;8782;-73
2022/01/29 02:28:24;;;;;;;;;33.40;33.40;;;;;;;;5277603;28;8820;-72
2022/01/29 02:31:00;;;;;;;;;35.60;34.00;;;;;;;;5274521;28;8778;-72
2022/01/29 02:33:32;;;;;;;;;21.60;21.40;;;;;;;;5257489;28;9504;-71
2022/01/29 02:36:04;;;;;;;;;33.00;30.60;;;;;;;;5257249;28;8851;-72
2022/01/29 02:38:36;;;;;;;;;36.80;35.00;;;;;;;;5273972;28;8793;-71
2022/01/29 02:41:08;;;;;;;;;33.40;31.80;;;;;;;;5273951;28;8766;-73
2022/01/29 02:43:45;;;;;;;;;37.40;35.20;;;;;;;;5273701;28;8781;-71
2022/01/29 02:48:52;;;;;;;;;34.20;33.20;;;;;;;;5290152;28;8906;-71
2022/01/29 02:51:24;;;;;;;;;31.00;29.20;;;;;;;;5256342;28;8797;-71
2022/01/29 02:53:56;;;;;;;;;29.60;29.40;;;;;;;;5274274;28;9292;-71
2022/01/29 02:56:45;;;;;;;;;19.80;19.40;;;;;;;;5275618;28;8790;-71
2022/01/29 02:59:16;;;;;;;;;18.80;17.20;;;;;;;;5273622;28;8786;-70
2022/01/29 03:01:48;;;;;;;;;60.00;50.50;;;;;;;;5289873;28;8762;-71
2022/01/29 03:04:19;;;;;;;;;28.40;27.80;;;;;;;;5273370;28;8859;-71
2022/01/29 03:06:50;;;;;;;;;38.50;36.75;;;;;;;;5290236;28;8750;-69
2022/01/29 03:09:21;;;;;;;;;43.60;38.40;;;;;;;;5289000;28;10710;-71
2022/01/29 03:11:52;;;;;;;;;35.60;35.20;;;;;;;;5272313;28;8793;-71
2022/01/29 03:14:23;;;;;;;;;42.80;35.20;;;;;;;;5272860;28;8893;-70
2022/01/29 03:16:56;;;;;;;;;39.40;39.00;;;;;;;;5290946;28;8786;-71
2022/01/29 03:19:27;;;;;;;;;46.40;42.00;;;;;;;;5289598;28;8781;-72
2022/01/29 03:21:58;;;;;;;;;39.20;38.80;;;;;;;;5256063;28;8868;-72
2022/01/29 03:24:30;;;;;;;;;25.80;24.40;;;;;;;;5272788;28;8774;-72
2022/01/29 03:27:01;;;;;;;;;21.80;21.20;;;;;;;;5255850;28;8778;-71
2022/01/29 03:29:32;;;;;;;;;42.00;38.60;;;;;;;;5289840;28;8810;-73
2022/01/29 03:32:04;;;;;;;;;46.80;43.40;;;;;;;;5255360;28;8785;-72
2022/01/29 03:34:54;;;;;;;;;52.00;45.40;;;;;;;;5289373;28;8793;-72
2022/01/29 03:37:26;;;;;;;;;46.25;41.00;;;;;;;;5272658;28;8805;-72
2022/01/29 03:40:00;;;;;;;;;30.80;29.60;;;;;;;;5289410;28;8766;-72
2022/01/29 03:42:39;;;;;;;;;26.60;21.00;;;;;;;;5273161;28;8786;-72
2022/01/29 03:45:13;;;;;;;;;39.60;35.20;;;;;;;;5272283;28;8901;-71
2022/01/29 03:47:45;;;;;;;;;53.00;47.60;;;;;;;;5272131;28;8813;-71
2022/01/29 03:50:16;;;;;;;;;44.20;42.20;;;;;;;;5271924;28;8793;-71
2022/01/29 03:52:48;;;;;;;;;41.40;38.00;;;;;;;;5289129;28;8774;-69
2022/01/29 03:55:20;;;;;;;;;36.00;33.40;;;;;;;;5255481;28;8829;-71
2022/01/29 03:57:51;;;;;;;;;36.40;36.00;;;;;;;;5255178;28;8781;-72
2022/01/29 04:00:22;;;;;;;;;31.20;30.40;;;;;;;;5255133;28;8790;-72
2022/01/29 04:02:53;;;;;;;;;20.00;18.80;;;;;;;;5256274;28;8913;-72
2022/01/29 04:05:26;;;;;;;;;30.00;26.20;;;;;;;;5288840;28;8782;-70
2022/01/29 04:08:18;;;;;;;;;35.60;35.60;;;;;;;;5257094;28;8874;-69
2022/01/29 04:11:08;;;;;;;;;33.00;33.00;;;;;;;;5288926;28;8778;-69
2022/01/29 04:13:45;;;;;;;;;31.60;31.60;;;;;;;;5254973;28;8789;-69
2022/01/29 04:16:17;;;;;;;;;29.80;27.60;;;;;;;;5271768;28;8782;-68
2022/01/29 04:18:48;;;;;;;;;28.20;25.00;;;;;;;;5255139;28;8793;-70
2022/01/29 04:21:19;;;;;;;;;34.00;33.00;;;;;;;;5254269;28;8804;-70
2022/01/29 04:23:50;;;;;;;;;34.80;33.40;;;;;;;;5271531;28;8758;-69
2022/01/29 04:26:22;;;;;;;;;27.40;25.60;;;;;;;;5288431;28;8774;-69
2022/01/29 04:28:53;;;;;;;;;40.60;32.20;;;;;;;;5271310;28;8802;-69
2022/01/29 04:31:25;;;;;;;;;25.80;25.80;;;;;;;;5270825;28;8782;-70
2022/01/29 04:33:56;;;;;;;;;33.00;31.80;;;;;;;;5254948;28;8862;-69
2022/01/29 04:36:27;;;;;;;;;33.75;31.00;;;;;;;;5288400;28;8778;-72
2022/01/29 04:38:58;;;;;;;;;24.40;23.00;;;;;;;;5289059;28;11556;-70
2022/01/29 04:41:29;;;;;;;;;25.60;24.80;;;;;;;;5288228;28;8890;-68
2022/01/29 04:44:01;;;;;;;;;34.00;34.00;;;;;;;;5271389;28;8793;-72
2022/01/29 04:46:32;;;;;;;;;32.20;31.80;;;;;;;;5288222;28;8774;-75
2022/01/29 04:49:03;;;;;;;;;36.25;36.25;;;;;;;;5270347;28;8830;-73
2022/01/29 04:51:34;;;;;;;;;31.80;31.80;;;;;;;;5271688;28;10178;-70
2022/01/29 04:54:06;;;;;;;;;34.80;33.80;;;;;;;;5287549;28;8798;-71
2022/01/29 04:56:37;;;;;;;;;35.20;33.40;;;;;;;;5270890;28;8835;-70
2022/01/29 04:59:08;;;;;;;;;45.60;40.00;;;;;;;;5254303;28;9570;-69
2022/01/29 05:01:39;;;;;;;;;41.40;40.40;;;;;;;;5270679;28;8797;-70
2022/01/29 05:04:11;;;;;;;;;34.75;29.75;;;;;;;;5287590;28;8778;-70
2022/01/29 05:06:43;;;;;;;;;62.50;49.50;;;;;;;;5253783;28;8854;-72
2022/01/29 05:09:14;;;;;;;;;59.00;51.25;;;;;;;;5270848;28;8841;-73
2022/01/29 05:12:04;;;;;;;;;53.40;46.20;;;;;;;;5273499;28;9558;-70
2022/01/29 05:14:48;;;;;;;;;38.20;36.20;;;;;;;;5287934;28;8770;-72
2022/01/29 05:28:26;;;;;;;;;46.60;41.40;;;;;;;;5270861;28;8802;-72
2022/01/29 05:30:58;;;;;;;;;33.20;29.20;;;;;;;;5270322;28;8782;-74
2022/01/29 05:33:29;;;;;;;;;49.40;41.60;;;;;;;;5252949;28;8862;-72
2022/01/29 05:36:00;;;;;;;;;68.67;54.67;;;;;;;;5287065;28;8797;-72
2022/01/29 05:38:32;;;;;;;;;72.75;52.25;;;;;;;;5253243;28;8793;-72
2022/01/29 05:41:04;;;;;;;;;50.60;45.60;;;;;;;;5253688;28;8813;-71
2022/01/29 05:43:36;;;;;;;;;41.80;37.80;;;;;;;;5270055;28;8778;-71
2022/01/29 05:46:08;;;;;;;;;44.00;36.40;;;;;;;;5270142;28;8877;-75
2022/01/29 05:48:40;;;;;;;;;35.20;33.20;;;;;;;;5252953;28;8818;-73
2022/01/29 05:51:12;;;;;;;;;31.60;30.80;;;;;;;;5269911;28;8912;-69
2022/01/29 05:53:44;;;;;;;;;43.40;37.80;;;;;;;;5286801;28;8774;-71
2022/01/29 05:56:34;;;;;;;;;28.60;27.00;;;;;;;;5287589;28;8750;-73
2022/01/29 05:59:05;;;;;;;;;18.60;16.80;;;;;;;;5287987;28;8806;-73
2022/01/29 06:01:37;;;;;;;;;39.00;37.60;;;;;;;;5287136;28;8778;-76
2022/01/29 06:04:08;;;;;;;;;25.25;25.00;;;;;;;;5287491;28;8759;-72
2022/01/29 06:06:39;;;;;;;;;35.00;35.00;;;;;;;;5269783;28;11506;-74
2022/01/29 06:09:10;;;;;;;;;28.00;28.00;;;;;;;;5269869;28;8810;-74
2022/01/29 06:11:41;;;;;;;;;36.20;34.00;;;;;;;;5270204;28;8797;-73
2022/01/29 06:14:12;;;;;;;;;37.20;34.40;;;;;;;;5252973;28;8866;-74
2022/01/29 06:16:43;;;;;;;;;23.80;20.20;;;;;;;;5253059;28;8790;-73
2022/01/29 06:19:15;;;;;;;;;44.80;41.40;;;;;;;;5269763;28;8786;-74
2022/01/29 06:21:46;;;;;;;;;41.20;36.80;;;;;;;;5286984;28;8789;-74
2022/01/29 06:24:17;;;;;;;;;44.80;44.60;;;;;;;;5253230;28;8785;-74
2022/01/29 06:26:48;;;;;;;;;50.00;45.20;;;;;;;;5286292;28;8919;-74
2022/01/29 06:29:19;;;;;;;;;55.20;46.00;;;;;;;;5286664;28;8845;-74
2022/01/29 06:31:51;;;;;;;;;50.40;43.80;;;;;;;;5288789;28;8782;-74
2022/01/29 06:34:22;;;;;;;;;35.00;33.00;;;;;;;;5269098;28;8814;-74
2022/01/29 06:36:54;;;;;;;;;41.20;35.60;;;;;;;;5286656;28;9422;-73
2022/01/29 06:39:25;;;;;;;;;46.80;42.60;;;;;;;;5286429;28;9005;-74
2022/01/29 06:41:57;;;;;;;;;42.60;39.40;;;;;;;;5286346;28;8766;-75
2022/01/29 06:44:27;;;;;;;;;51.40;46.80;;;;;;;;5271183;28;8773;-73
2022/01/29 06:46:59;;;;;;;;;54.60;46.40;;;;;;;;5256222;28;8809;-74
2022/01/29 06:49:31;;;;;;;;;62.20;49.80;;;;;;;;5290367;28;8817;-76
2022/01/29 06:52:02;;;;;;;;;46.80;44.60;;;;;;;;5256716;28;8770;-73
2022/01/29 06:54:33;;;;;;;;;53.60;45.60;;;;;;;;5273388;28;9508;-74
2022/01/29 06:57:05;;;;;;;;;43.20;38.20;;;;;;;;5273588;28;8888;-74
2022/01/29 06:59:36;;;;;;;;;51.40;47.00;;;;;;;;5289547;28;8906;-75
2022/01/29 07:02:08;;;;;;;;;45.00;38.00;;;;;;;;5255984;28;8940;-73
2022/01/29 07:04:39;;;;;;;;;46.00;43.00;;;;;;;;5273614;28;9594;-75
2022/01/29 07:07:10;;;;;;;;;52.40;47.80;;;;;;;;5273359;28;9512;-73
2022/01/29 07:09:41;;;;;;;;;39.80;38.60;;;;;;;;5290802;27;8809;-73
2022/01/29 07:12:12;;;;;;;;;47.00;43.00;;;;;;;;5256322;28;8786;-81
2022/01/29 07:14:44;;;;;;;;;37.50;37.00;;;;;;;;5290161;28;8812;-71
2022/01/29 07:17:17;;;;;;;;;38.40;36.20;;;;;;;;5273122;28;9870;-70
2022/01/29 07:19:50;;;;;;;;;30.00;28.00;;;;;;;;5289654;28;8801;-71
2022/01/29 07:22:22;;;;;;;;;39.80;39.20;;;;;;;;5289140;28;9010;-71
2022/01/29 07:24:53;;;;;;;;;43.40;40.20;;;;;;;;5291199;28;8788;-70
2022/01/29 07:27:24;;;;;;;;;42.60;41.20;;;;;;;;5272023;28;8766;-70
2022/01/29 07:29:55;;;;;;;;;56.00;48.20;;;;;;;;5255555;28;8806;-70
2022/01/29 07:32:26;;;;;;;;;39.80;35.80;;;;;;;;5290167;28;8825;-71
2022/01/29 07:34:58;;;;;;;;;35.80;34.40;;;;;;;;5289594;28;8778;-70
2022/01/29 07:37:29;;;;;;;;;38.40;37.20;;;;;;;;5255628;28;8802;-69
2022/01/29 07:40:19;;;;;;;;;45.20;35.20;;;;;;;;5289149;28;8801;-69
2022/01/29 07:42:50;;;;;;;;;42.40;39.20;;;;;;;;5272595;28;8790;-70
2022/01/29 07:45:39;;;;;;;;;47.80;44.20;;;;;;;;5275185;28;8912;-69
2022/01/29 07:48:11;;;;;;;;;36.20;34.40;;;;;;;;5272533;28;9509;-69
2022/01/29 07:50:42;;;;;;;;;46.20;42.00;;;;;;;;5289161;28;9488;-69
2022/01/29 07:53:13;;;;;;;;;45.80;43.00;;;;;;;;5271795;28;8811;-69
2022/01/29 07:55:44;;;;;;;;;47.00;38.00;;;;;;;;5271809;28;8786;-71
2022/01/29 07:58:16;;;;;;;;;38.00;36.20;;;;;;;;5255167;28;9986;-69
2022/01/29 08:00:48;;;;;;;;;38.00;36.60;;;;;;;;5288789;28;8794;-69
2022/01/29 08:03:19;;;;;;;;;37.00;34.80;;;;;;;;5254872;28;8925;-70
2022/01/29 08:05:50;;;;;;;;;42.40;36.20;;;;;;;;5254974;28;8806;-70
2022/01/29 08:08:21;;;;;;;;;37.00;35.00;;;;;;;;5250756;28;8812;-71
2022/01/29 08:10:52;;;;;;;;;43.25;39.25;;;;;;;;5250888;28;11004;-67
2022/01/29 08:13:23;;;;;;;;;40.60;38.40;;;;;;;;5267933;28;9724;-69
2022/01/29 08:15:54;;;;;;;;;46.60;39.60;;;;;;;;5268995;28;8773;-68
2022/01/29 08:18:25;;;;;;;;;49.00;45.50;;;;;;;;5268670;28;8819;-73
2022/01/29 08:20:56;;;;;;;;;28.80;27.80;;;;;;;;5275750;28;8820;-75
2022/01/29 08:23:27;;;;;;;;;43.50;41.75;;;;;;;;5237645;28;8778;-74
2022/01/29 08:26:17;;;;;;;;;54.40;48.00;;;;;;;;5288325;28;8770;-71
2022/01/29 08:28:48;;;;;;;;;52.75;46.25;;;;;;;;5289296;28;8816;-69
2022/01/29 08:31:18;;;;;;;;;51.25;42.75;;;;;;;;5270987;28;8850;-69
2022/01/29 08:33:49;;;;;;;;;41.00;38.50;;;;;;;;5271318;28;8798;-76
2022/01/29 08:36:38;;;;;;;;;33.60;31.80;;;;;;;;5274428;28;8854;-76
2022/01/29 08:39:09;;;;;;;;;45.25;40.75;;;;;;;;5254264;28;8813;-75
2022/01/29 08:41:40;;;;;;;;;39.50;36.50;;;;;;;;5266788;28;8862;-77
2022/01/29 08:44:11;;;;;;;;;35.00;29.60;;;;;;;;5278079;28;8778;-76
2022/01/29 08:46:42;;;;;;;;;36.00;35.50;;;;;;;;5287599;28;8790;-76
2022/01/29 08:49:13;;;;;;;;;40.00;38.50;;;;;;;;5287886;28;9664;-75
2022/01/29 08:51:44;;;;;;;;;34.20;34.20;;;;;;;;5288674;27;8794;-75
2022/01/29 08:54:33;;;;;;;;;30.40;27.40;;;;;;;;5274094;28;8778;-80
2022/01/29 08:57:04;;;;;;;;;35.80;29.60;;;;;;;;5254779;28;8778;-75
2022/01/29 08:59:35;;;;;;;;;38.20;37.00;;;;;;;;5254049;28;8786;-74
2022/01/29 09:02:06;;;;;;;;;28.75;28.00;;;;;;;;5287305;28;8790;-76
2022/01/29 09:04:37;;;;;;;;;35.60;30.40;;;;;;;;5270544;28;11477;-75
2022/01/29 09:07:09;;;;;;;;;32.75;31.75;;;;;;;;5287265;28;8782;-75
2022/01/29 09:09:44;;;;;;;;;45.80;39.20;;;;;;;;5269543;28;8956;-75
2022/01/29 09:12:15;;;;;;;;;45.40;38.20;;;;;;;;5253879;28;8870;-75
2022/01/29 09:14:45;;;;;;;;;33.50;33.00;;;;;;;;5288568;28;8797;-75
2022/01/29 09:17:16;;;;;;;;;31.25;29.75;;;;;;;;5270635;28;8816;-75
2022/01/29 09:19:47;;;;;;;;;34.50;28.25;;;;;;;;5287243;28;9480;-74
2022/01/29 09:22:18;;;;;;;;;45.00;41.60;;;;;;;;5270930;28;9584;-75
2022/01/29 09:24:49;;;;;;;;;21.75;18.25;;;;;;;;5270725;28;8940;-76
2022/01/29 09:27:20;;;;;;;;;24.60;24.60;;;;;;;;5270300;28;11441;-75
2022/01/29 09:29:51;;;;;;;;;36.50;32.25;;;;;;;;5270283;28;8790;-76
2022/01/29 09:32:22;;;;;;;;;38.25;34.75;;;;;;;;5270047;28;11484;-74
2022/01/29 09:34:53;;;;;;;;;45.20;39.40;;;;;;;;5270674;28;11623;-74
2022/01/29 09:37:24;;;;;;;;;93.00;68.33;;;;;;;;5248258;28;8931;-75
2022/01/29 09:39:55;;;;;;;;;46.00;43.75;;;;;;;;5268233;28;11448;-75
2022/01/29 09:42:26;;;;;;;;;40.25;39.50;;;;;;;;5231748;28;10528;-74
2022/01/29 09:44:57;;;;;;;;;55.60;49.20;;;;;;;;5276096;27;8904;-75
2022/01/29 09:47:29;;;;;;;;;40.40;33.80;;;;;;;;5253192;28;8778;-75
2022/01/29 09:50:01;;;;;;;;;39.20;37.00;;;;;;;;5236268;28;8904;-77
2022/01/29 09:52:33;;;;;;;;;38.60;31.40;;;;;;;;5236802;28;8795;-76
2022/01/29 09:55:04;;;;;;;;;38.50;36.75;;;;;;;;5270010;28;8790;-76
2022/01/29 09:57:54;;;;;;;;;36.20;34.40;;;;;;;;5255559;28;11751;-77
2022/01/29 10:00:25;;;;;;;;;38.00;35.00;;;;;;;;5253222;28;8776;-77
2022/01/29 10:03:16;;;;;;;;;33.20;32.80;;;;;;;;5255381;28;9730;-77
2022/01/29 10:05:52;;;;;;;;;30.80;30.40;;;;;;;;5269668;28;8769;-77
2022/01/29 10:08:23;;;;;;;;;22.40;22.40;;;;;;;;5236044;28;9577;-76
2022/01/29 10:10:55;;;;;;;;;25.80;24.80;;;;;;;;5269852;28;9500;-76
2022/01/29 10:13:45;;;;;;;;;21.00;19.40;;;;;;;;5255636;28;8926;-77
2022/01/29 10:16:21;;;;;;;;;25.25;25.25;;;;;;;;5237070;28;8911;-73
2022/01/29 10:19:04;;;;;;;;;18.60;18.60;;;;;;;;5254180;28;8799;-75
2022/01/29 10:21:53;;;;;;;;;23.40;23.20;;;;;;;;5277268;28;8781;-75
2022/01/29 10:24:24;;;;;;;;;29.25;28.00;;;;;;;;5274588;28;8810;-76
2022/01/29 10:26:55;;;;;;;;;29.50;29.25;;;;;;;;5252458;28;11550;-76
2022/01/29 10:29:27;;;;;;;;;16.80;16.80;;;;;;;;5252651;28;11492;-76
2022/01/29 10:32:00;;;;;;;;;19.60;19.60;;;;;;;;5236683;28;8786;-76
2022/01/29 10:34:35;;;;;;;;;19.00;19.00;;;;;;;;5270830;28;8777;-76
2022/01/29 10:37:18;;;;;;;;;33.40;32.00;;;;;;;;5291957;28;8788;-75
2022/01/29 10:39:54;;;;;;;;;50.00;31.40;;;;;;;;5240569;28;8760;-76
2022/01/29 10:42:25;;;;;;;;;27.00;26.80;;;;;;;;5240073;28;8768;-74
2022/01/29 10:44:59;;;;;;;;;23.40;23.20;;;;;;;;5256882;28;8756;-75
2022/01/29 10:47:31;;;;;;;;;24.00;23.00;;;;;;;;5255805;28;9519;-75
2022/01/29 10:50:05;;;;;;;;;20.20;19.00;;;;;;;;5255563;28;9523;-75
2022/01/29 10:52:37;;;;;;;;;18.60;18.60;;;;;;;;5239804;28;8784;-75
2022/01/29 10:55:08;;;;;;;;;22.25;21.75;;;;;;;;5240272;28;8857;-75
2022/01/29 10:57:39;;;;;;;;;17.60;16.40;;;;;;;;5272874;28;11459;-74
2022/01/29 11:00:13;;;;;;;;;23.75;23.00;;;;;;;;5257094;28;8792;-76
2022/01/29 11:02:45;;;;;;;;;16.40;16.40;;;;;;;;5273773;28;11568;-75
2022/01/29 11:05:18;;;;;;;;;31.80;27.20;;;;;;;;5240499;28;9493;-77
2022/01/29 11:07:51;;;;;;;;;37.80;35.20;;;;;;;;5272924;28;8772;-75
2022/01/29 11:10:25;;;;;;;;;24.80;24.40;;;;;;;;5238943;28;9637;-73
2022/01/29 11:12:56;;;;;;;;;26.40;26.40;;;;;;;;5273402;28;8788;-77
2022/01/29 11:15:28;;;;;;;;;33.40;30.80;;;;;;;;5256287;28;8903;-74
2022/01/29 11:17:59;;;;;;;;;45.60;44.20;;;;;;;;5290886;28;8781;-73
2022/01/29 11:20:30;;;;;;;;;35.60;30.80;;;;;;;;5239284;28;8815;-67
2022/01/29 11:23:01;;;;;;;;;36.75;32.75;;;;;;;;5255904;28;8789;-67
2022/01/29 11:25:34;;;;;;;;;29.20;29.20;;;;;;;;5290804;28;8780;-67
2022/01/29 11:28:28;;;;;;;;;16.40;14.40;;;;;;;;5290843;28;8809;-66
2022/01/29 11:31:12;;;;;;;;;33.40;32.20;;;;;;;;5238524;28;8901;-66
2022/01/29 11:33:58;;;;;;;;;43.20;37.40;;;;;;;;5239455;28;9427;-74
2022/01/29 11:36:55;;;;;;;;;57.20;45.20;;;;;;;;5255761;28;9498;-75
2022/01/29 11:39:29;;;;;;;;;59.00;48.20;;;;;;;;5234049;28;8868;-74
2022/01/29 11:42:15;;;;;;;;;46.60;43.80;;;;;;;;5272222;28;8899;-72
2022/01/29 11:44:46;;;;;;;;;66.20;55.60;;;;;;;;5238934;28;9487;-72
2022/01/29 11:47:38;;;;;;;;;84.80;66.20;;;;;;;;5255433;28;9471;-80
2022/01/29 11:50:24;;;;;;;;;40.40;35.60;;;;;;;;5270156;28;9618;-79
2022/01/29 11:53:01;;;;;;;;;54.60;46.00;;;;;;;;5239089;28;8819;-73
2022/01/29 11:55:32;;;;;;;;;59.80;49.80;;;;;;;;5272379;28;8784;-69
2022/01/29 11:58:16;;;;;;;;;22.75;19.00;;;;;;;;5238890;28;9490;-72
2022/01/29 12:00:51;;;;;;;;;22.80;22.40;;;;;;;;5255464;28;11377;-74
2022/01/29 12:03:45;;;;;;;;;25.60;25.00;;;;;;;;5258010;28;8884;-66
2022/01/29 12:09:07;;;;;;;;;19.20;18.00;;;;;;;;5255168;28;8800;-73
2022/01/29 12:11:39;;;;;;;;;22.60;20.00;;;;;;;;5272106;27;8827;-73
2022/01/29 12:14:13;;;;;;;;;26.60;26.20;;;;;;;;5260980;28;8828;-75
2022/01/29 12:17:05;;;;;;;;;18.00;18.00;;;;;;;;5274391;28;8915;-73
2022/01/29 12:19:58;;;;;;;;;16.40;16.40;;;;;;;;5270693;28;8785;-73
2022/01/29 12:22:32;;;;;;;;;20.20;18.40;;;;;;;;5268866;28;8821;-75
2022/01/29 12:25:07;;;;;;;;;18.00;18.00;;;;;;;;5233734;28;8798;-76
2022/01/29 12:27:39;;;;;;;;;30.20;29.20;;;;;;;;5218315;28;8793;-75
2022/01/29 12:30:12;;;;;;;;;17.80;17.80;;;;;;;;5217216;28;8852;-75
2022/01/29 12:32:56;;;;;;;;;15.80;13.40;;;;;;;;5254236;28;8819;-74
2022/01/29 12:35:33;;;;;;;;;18.00;17.20;;;;;;;;5238212;28;8775;-73
2022/01/29 12:38:05;;;;;;;;;18.00;17.60;;;;;;;;5238553;28;8825;-74
2022/01/29 12:40:39;;;;;;;;;31.20;30.20;;;;;;;;5254223;28;8792;-73
2022/01/29 12:43:30;;;;;;;;;26.00;25.00;;;;;;;;5256742;28;8844;-73
2022/01/29 12:46:07;;;;;;;;;17.20;16.80;;;;;;;;5249950;28;8794;-73
2022/01/29 12:48:39;;;;;;;;;9.60;9.60;;;;;;;;5249751;28;8910;-75
2022/01/29 12:51:11;;;;;;;;;15.80;14.60;;;;;;;;5250472;28;9193;-78
2022/01/29 12:53:42;;;;;;;;;9.60;9.60;;;;;;;;5224221;28;8802;-74
2022/01/29 12:56:13;;;;;;;;;21.00;21.00;;;;;;;;5232732;28;8808;-72
2022/01/29 12:58:44;;;;;;;;;28.00;21.80;;;;;;;;5233166;28;8798;-75
2022/01/29 13:01:17;;;;;;;;;12.60;12.60;;;;;;;;5216716;28;8790;-71
2022/01/29 13:03:48;;;;;;;;;12.60;12.60;;;;;;;;5233424;28;8787;-72
2022/01/29 13:06:20;;;;;;;;;22.80;22.20;;;;;;;;5250172;28;8808;-71
2022/01/29 13:08:51;;;;;;;;;20.20;19.80;;;;;;;;5249077;28;8857;-73
2022/01/29 13:11:40;;;;;;;;;10.40;10.40;;;;;;;;5267935;28;8828;-73
2022/01/29 13:14:14;;;;;;;;;27.00;25.80;;;;;;;;5233289;28;8771;-73
2022/01/29 13:16:46;;;;;;;;;24.80;21.00;;;;;;;;5216842;28;8759;-73
2022/01/29 13:19:17;;;;;;;;;21.80;18.60;;;;;;;;5248763;28;9565;-72
2022/01/29 13:21:49;;;;;;;;;34.00;27.40;;;;;;;;5215572;28;8786;-72
2022/01/29 13:24:47;;;;;;;;;16.80;15.40;;;;;;;;5252703;28;9500;-73
2022/01/29 13:27:25;;;;;;;;;43.20;39.00;;;;;;;;5270806;28;8764;-73
2022/01/29 13:30:01;;;;;;;;;44.60;35.20;;;;;;;;5253625;28;8893;-72
2022/01/29 13:32:37;;;;;;;;;26.80;26.60;;;;;;;;5253949;28;8756;-72
2022/01/29 13:35:35;;;;;;;;;8.80;8.80;;;;;;;;5253471;28;8772;-71
2022/01/29 13:38:08;;;;;;;;;28.40;27.00;;;;;;;;5248784;28;8760;-71
2022/01/29 13:40:43;;;;;;;;;21.60;21.60;;;;;;;;5236837;28;8761;-70
2022/01/29 13:47:04;;;;;;;;;18.20;17.60;;;;;;;;5266474;28;8860;-73
2022/01/29 13:49:54;;;;;;;;;26.60;23.40;;;;;;;;5234571;28;8853;-72
2022/01/29 13:56:49;;;;;;;;;13.20;13.20;;;;;;;;5267090;28;8691;-72
2022/01/29 13:59:21;;;;;;;;;7.00;7.00;;;;;;;;5249286;28;8798;-74
2022/01/29 14:01:57;;;;;;;;;23.20;20.80;;;;;;;;5232551;28;8775;-72
2022/01/29 14:12:48;;;;;;;;;15.00;15.00;;;;;;;;5266915;28;8734;-73
2022/01/29 14:15:18;;;;;;;;;15.00;13.60;;;;;;;;5249433;28;8852;-73
2022/01/29 14:22:14;;;;;;;;;10.00;10.00;;;;;;;;5266815;28;8700;-72
2022/01/29 14:24:46;;;;;;;;;18.40;17.60;;;;;;;;5248848;28;8797;-72
2022/01/29 14:27:17;;;;;;;;;16.60;16.00;;;;;;;;5231655;28;9540;-71
2022/01/29 14:29:49;;;;;;;;;21.40;20.60;;;;;;;;5231505;28;8799;-71
2022/01/29 14:32:21;;;;;;;;;26.80;25.00;;;;;;;;5215847;28;8793;-70
2022/01/29 14:34:52;;;;;;;;;18.80;18.20;;;;;;;;5249046;28;8917;-72
2022/01/29 14:37:43;;;;;;;;;15.40;12.40;;;;;;;;5249244;28;8794;-70
2022/01/29 14:40:14;;;;;;;;;10.00;7.00;;;;;;;;5249001;28;8944;-69
2022/01/29 14:42:45;;;;;;;;;12.00;12.00;;;;;;;;5232084;28;8798;-70
2022/01/29 14:45:17;;;;;;;;;19.00;18.00;;;;;;;;5231846;28;9939;-70
2022/01/29 14:47:50;;;;;;;;;24.40;18.40;;;;;;;;5231894;28;8913;-72
2022/01/29 14:50:23;;;;;;;;;17.20;16.80;;;;;;;;5249715;28;8810;-70
2022/01/29 14:52:54;;;;;;;;;20.60;16.80;;;;;;;;5265221;28;8774;-71
2022/01/29 14:55:25;;;;;;;;;15.00;15.00;;;;;;;;5248607;28;8805;-72
2022/01/29 14:57:56;;;;;;;;;7.00;6.40;;;;;;;;5232104;28;9521;-70
2022/01/29 15:04:59;;;;;;;;;10.20;10.20;;;;;;;;5266255;28;11503;-72
2022/01/29 15:07:30;;;;;;;;;17.40;16.20;;;;;;;;5267024;28;8788;-72
2022/01/29 15:14:43;;;;;;;;;9.60;9.60;;;;;;;;5290366;28;8732;-71
2022/01/29 15:17:14;;;;;;;;;5.20;3.80;;;;;;;;5255437;28;8789;-71
2022/01/29 15:19:49;;;;;;;;;10.40;10.40;;;;;;;;5234430;28;8827;-71
2022/01/29 15:22:20;;;;;;;;;22.40;20.80;;;;;;;;5251544;28;8787;-70
2022/01/29 15:24:59;;;;;;;;;19.80;19.80;;;;;;;;5237584;28;8825;-73
2022/01/29 15:27:33;;;;;;;;;15.80;10.00;;;;;;;;5271690;28;8784;-71
2022/01/29 15:30:29;;;;;;;;;15.60;15.60;;;;;;;;5271328;27;8808;-71
2022/01/29 15:33:00;;;;;;;;;10.40;10.40;;;;;;;;5252233;28;8778;-72
2022/01/29 15:35:34;;;;;;;;;11.25;10.00;;;;;;;;5268354;28;8766;-72
2022/01/29 15:42:28;;;;;;;;;11.00;11.00;;;;;;;;5269511;28;8798;-70
2022/01/29 15:44:59;;;;;;;;;12.50;12.50;;;;;;;;5218095;28;8779;-71
2022/01/29 15:47:51;;;;;;;;;21.40;21.40;;;;;;;;5259658;28;9535;-74
2022/01/29 15:50:23;;;;;;;;;24.20;18.40;;;;;;;;5254665;28;8820;-71
2022/01/29 15:57:17;;;;;;;;;14.60;14.60;;;;;;;;5289882;28;8733;-72
2022/01/29 15:59:48;;;;;;;;;30.80;30.20;;;;;;;;5255006;28;8776;-71
2022/01/29 16:02:19;;;;;;;;;34.25;32.00;;;;;;;;5253756;28;8819;-71
2022/01/29 16:04:53;;;;;;;;;36.00;35.75;;;;;;;;5255017;28;8799;-72
2022/01/29 16:07:25;;;;;;;;;76.25;62.75;;;;;;;;5272051;28;9475;-73